This is the latest recevied weather packets stored in our database for station/object EA1IXY-2. If no packets are shown the sender has not sent any weather packets the latest 10 day(s).
| Time | Temp. | Humidity | Pressure | Rain* | Wind** | Luminosity | Snow |
|---|---|---|---|---|---|---|---|
| 1778123936 | 38.33° C | 16% | 925 hPa | - | - | - | - |
| 1778123036 | 36.67° C | 16% | 923.2 hPa | - | - | - | - |
| 1778122136 | 37.78° C | 16% | 925 hPa | - | - | - | - |
| 1778121236 | 38.33° C | 16% | 925.1 hPa | - | - | - | - |
| 1778120336 | 37.78° C | 16% | 925.1 hPa | - | - | - | - |
| 1778119436 | 38.33° C | 16% | 925.2 hPa | - | - | - | - |
| 1778118536 | 38.33° C | 16% | 925.2 hPa | - | - | - | - |
| 1778117636 | 36.67° C | 16% | 923.9 hPa | - | - | - | - |
| 1778116723 | 37.78° C | 16% | 925.5 hPa | - | - | - | - |
| 1778115823 | 37.78° C | 17% | 925.5 hPa | - | - | - | - |
| 1778114923 | 37.78° C | 16% | 925.6 hPa | - | - | - | - |
| 1778114023 | 37.78° C | 16% | 925.7 hPa | - | - | - | - |
| 1778113123 | 38.33° C | 16% | 925.8 hPa | - | - | - | - |
| 1778112223 | 38.33° C | 16% | 925.9 hPa | - | - | - | - |
| 1778111323 | 37.78° C | 16% | 925.8 hPa | - | - | - | - |
| 1778110423 | 38.33° C | 16% | 925.8 hPa | - | - | - | - |
| 1778109523 | 38.33° C | 16% | 925.9 hPa | - | - | - | - |
| 1778108622 | 38.33° C | 16% | 925.8 hPa | - | - | - | - |
| 1778107722 | 38.33° C | 16% | 925.9 hPa | - | - | - | - |
| 1778106825 | 37.22° C | 16% | 924.7 hPa | - | - | - | - |
| 1778105910 | 38.33° C | 15% | 926.1 hPa | - | - | - | - |
| 1778105010 | 38.33° C | 16% | 926.1 hPa | - | - | - | - |
| 1778104110 | 38.33° C | 15% | 926.1 hPa | - | - | - | - |
| 1778103210 | 38.33° C | 16% | 925.9 hPa | - | - | - | - |
| 1778102310 | 38.33° C | 16% | 926.1 hPa | - | - | - | - |
* Rain since midnight (hover to see other rain measurements)
** Current wind speed in m/s (hover to see current wind gust speed)